Time;durP1;ratioP1;P1;durP2;ratioP2;P2;SDS_P1;SDS_P2;PMS_P1;PMS_P2;Temp;Humidity;BMP_temperature;BMP_pressure;BME280_temperature;BME280_humidity;BME280_pressure;Samples;Min_cycle;Max_cycle;Signal;HPM_P1;HPM_P2
2023/04/27 00:00:23;;;;;;;5.53;2.90;;;;;;;9.18;82.25;98712.41;5056724;28;20049;-93
2023/04/27 00:02:49;;;;;;;4.53;2.78;;;;;;;8.96;82.68;98671.38;5056181;28;20037;-93
2023/04/27 00:05:16;;;;;;;6.03;2.90;;;;;;;9.07;83.33;98697.66;5055626;28;20087;-94
2023/04/27 00:07:42;;;;;;;4.57;2.90;;;;;;;9.07;84.51;98702.97;5054628;28;20108;-94
2023/04/27 00:10:09;;;;;;;5.07;3.40;;;;;;;9.03;85.64;98704.78;5055642;28;20069;-94
2023/04/27 00:12:34;;;;;;;4.82;3.03;;;;;;;8.94;86.46;98705.88;5056174;28;20131;-92
2023/04/27 00:15:00;;;;;;;4.65;3.00;;;;;;;8.62;86.08;98665.00;5062093;28;20549;-94
2023/04/27 00:17:26;;;;;;;4.38;2.53;;;;;;;8.70;86.32;98698.44;5064743;28;20435;-93
2023/04/27 00:19:53;;;;;;;3.45;2.78;;;;;;;8.77;85.30;98708.00;5067760;28;20038;-93
2023/04/27 00:22:22;;;;;;;5.03;2.75;;;;;;;8.63;85.50;98684.41;5069705;28;20039;-93
2023/04/27 00:24:48;;;;;;;4.40;2.90;;;;;;;8.68;84.89;98693.16;5061950;28;20040;-93
2023/04/27 00:27:14;;;;;;;5.20;2.90;;;;;;;8.69;85.96;98700.19;5064015;28;20041;-93
2023/04/27 00:29:41;;;;;;;5.10;3.00;;;;;;;8.64;86.77;98700.28;5060731;28;20135;-95
2023/04/27 00:32:08;;;;;;;8.05;3.33;;;;;;;8.58;88.03;98705.72;5063867;28;20383;-92
2023/04/27 00:34:34;;;;;;;4.43;3.00;;;;;;;8.49;88.58;98702.38;5067732;28;20036;-93
2023/04/27 00:37:00;;;;;;;5.68;3.33;;;;;;;8.42;90.12;98699.84;5062619;28;20047;-95
2023/04/27 00:39:27;;;;;;;5.38;3.20;;;;;;;8.35;89.49;98689.34;5066217;28;20019;-94
2023/04/27 00:41:53;;;;;;;5.28;3.00;;;;;;;8.39;89.51;98707.84;5075832;28;20128;-94
2023/04/27 00:44:23;;;;;;;4.32;2.90;;;;;;;8.35;88.82;98707.91;5067184;28;20076;-93
2023/04/27 00:46:49;;;;;;;7.07;3.20;;;;;;;8.09;90.24;98681.91;5062143;28;20474;-93
2023/04/27 00:49:15;;;;;;;6.10;2.92;;;;;;;8.32;90.12;98726.53;5063035;28;20055;-93
2023/04/27 00:51:41;;;;;;;4.68;3.03;;;;;;;8.19;90.95;98696.72;5059909;28;20127;-94
2023/04/27 00:54:08;;;;;;;5.20;2.90;;;;;;;8.30;91.79;98723.03;5062232;28;20574;-94
2023/04/27 00:56:35;;;;;;;4.72;2.90;;;;;;;8.18;90.96;98698.50;5059201;28;20052;-93
2023/04/27 00:59:01;;;;;;;4.57;2.70;;;;;;;8.01;90.91;98669.69;5062593;28;20124;-92
2023/04/27 01:01:29;;;;;;;4.70;2.90;;;;;;;8.25;90.48;98706.34;5069468;28;20059;-94
2023/04/27 01:03:55;;;;;;;4.57;3.10;;;;;;;8.15;91.31;98700.34;5062270;28;20032;-95
2023/04/27 01:06:20;;;;;;;6.50;3.08;;;;;;;7.96;92.58;98671.56;5064917;28;20567;-95
2023/04/27 01:08:46;;;;;;;6.68;2.92;;;;;;;7.86;92.70;98664.66;5063605;28;20101;-94
2023/04/27 01:11:12;;;;;;;5.45;2.88;;;;;;;7.87;93.26;98682.31;5061951;28;20047;-94
2023/04/27 01:13:40;;;;;;;4.45;2.80;;;;;;;7.95;93.46;98712.16;5065056;28;20043;-94
2023/04/27 01:16:05;;;;;;;5.78;2.90;;;;;;;7.97;93.18;98707.72;5063271;28;20064;-94
2023/04/27 01:18:32;;;;;;;5.18;3.25;;;;;;;7.87;93.17;98684.97;5066131;28;20078;-95
2023/04/27 01:20:59;;;;;;;5.25;3.20;;;;;;;7.97;93.68;98715.66;5057939;28;20031;-93
2023/04/27 01:23:26;;;;;;;5.97;2.80;;;;;;;7.85;93.72;98692.06;5067711;28;20090;-93
2023/04/27 01:25:52;;;;;;;3.90;2.50;;;;;;;7.80;93.11;98683.31;5061075;28;20051;-93
2023/04/27 01:28:18;;;;;;;5.15;3.15;;;;;;;7.89;92.94;98701.66;5064486;28;20048;-94
2023/04/27 01:30:44;;;;;;;5.30;3.28;;;;;;;7.77;93.20;98683.38;5061752;28;20131;-93
2023/04/27 01:33:10;;;;;;;5.10;2.90;;;;;;;7.67;93.08;98679.97;5071327;28;20059;-94
2023/04/27 01:35:36;;;;;;;5.18;3.13;;;;;;;7.57;93.79;98684.56;5060459;28;20048;-93
2023/04/27 01:38:01;;;;;;;4.47;2.97;;;;;;;7.59;93.87;98685.44;5066324;28;20891;-94
2023/04/27 01:40:29;;;;;;;3.70;2.72;;;;;;;7.68;92.44;98692.34;5067103;28;20482;-94
2023/04/27 01:42:55;;;;;;;6.70;2.88;;;;;;;7.61;93.52;98691.56;5066525;28;20040;-94
2023/04/27 01:45:21;;;;;;;5.35;3.33;;;;;;;7.77;92.78;98723.06;5070769;28;20094;-94
2023/04/27 01:47:49;;;;;;;6.10;3.08;;;;;;;7.87;93.02;98735.25;5068113;28;21194;-92
2023/04/27 01:50:15;;;;;;;4.95;3.30;;;;;;;7.73;92.68;98708.13;5065055;28;20089;-93
2023/04/27 01:52:40;;;;;;;4.68;3.20;;;;;;;7.76;92.66;98716.00;5062970;28;20052;-94
2023/04/27 01:55:07;;;;;;;5.53;3.15;;;;;;;7.75;92.79;98711.63;5066341;28;20040;-92
2023/04/27 01:57:34;;;;;;;4.55;3.03;;;;;;;7.80;91.79;98733.59;5070389;28;20020;-93
2023/04/27 02:00:00;;;;;;;6.50;3.13;;;;;;;7.74;92.00;98713.41;5067416;28;20040;-93
2023/04/27 02:02:26;;;;;;;5.28;2.90;;;;;;;7.81;91.80;98725.63;5067254;28;20536;-93
2023/04/27 02:04:52;;;;;;;4.28;2.95;;;;;;;7.72;91.51;98706.38;5066458;28;20393;-93
2023/04/27 02:07:18;;;;;;;5.38;3.35;;;;;;;7.88;91.22;98728.19;5064275;28;20079;-92
2023/04/27 02:09:44;;;;;;;3.92;2.90;;;;;;;7.58;91.97;98683.66;5061000;28;20538;-94
2023/04/27 02:12:10;;;;;;;5.85;3.10;;;;;;;7.78;92.07;98730.97;5071956;28;20483;-93
2023/04/27 02:14:37;;;;;;;5.32;3.25;;;;;;;7.53;92.20;98706.69;5067111;28;20525;-93
2023/04/27 02:17:03;;;;;;;4.88;3.17;;;;;;;7.43;92.85;98698.91;5067622;28;20072;-93
2023/04/27 02:19:29;;;;;;;4.88;2.83;;;;;;;7.62;92.42;98732.13;5066120;28;21399;-93
2023/04/27 02:21:55;;;;;;;5.95;2.92;;;;;;;7.49;93.07;98718.22;5064685;28;20036;-93
2023/04/27 02:24:21;;;;;;;7.13;2.97;;;;;;;7.56;93.86;98724.28;5063468;28;20045;-93
2023/04/27 02:26:47;;;;;;;8.20;3.30;;;;;;;7.39;94.33;98698.06;5063204;28;20041;-92
2023/04/27 02:29:13;;;;;;;4.75;2.70;;;;;;;7.58;94.36;98747.16;5067909;28;20041;-93
2023/04/27 02:31:40;;;;;;;4.57;3.00;;;;;;;7.52;93.63;98728.75;5064405;28;20546;-95
2023/04/27 02:34:06;;;;;;;5.63;2.90;;;;;;;7.34;93.47;98694.66;5065482;28;20131;-94
2023/04/27 02:36:32;;;;;;;4.40;2.80;;;;;;;7.40;93.28;98707.78;5061901;28;20044;-94
2023/04/27 02:38:58;;;;;;;5.55;3.00;;;;;;;7.32;93.42;98701.72;5062074;28;20048;-93
2023/04/27 02:41:26;;;;;;;4.05;2.72;;;;;;;7.30;94.26;98712.31;5063534;28;20041;-92
2023/04/27 02:43:52;;;;;;;4.47;2.90;;;;;;;7.27;95.48;98722.09;5062921;28;20071;-93
2023/04/27 02:46:18;;;;;;;7.13;3.10;;;;;;;7.16;95.89;98709.03;5065503;28;20289;-93
2023/04/27 02:48:45;;;;;;;5.15;2.78;;;;;;;7.31;96.07;98737.03;5064155;28;20032;-93
2023/04/27 02:51:11;;;;;;;6.75;2.92;;;;;;;7.33;95.65;98740.50;5062664;28;20045;-92
2023/04/27 02:53:37;;;;;;;4.63;3.15;;;;;;;7.22;96.08;98729.19;5066747;28;20047;-92
2023/04/27 02:56:04;;;;;;;4.57;2.72;;;;;;;7.08;96.23;98722.34;5069373;28;20040;-93
2023/04/27 02:58:29;;;;;;;5.18;2.78;;;;;;;7.09;97.95;98741.72;5066520;28;20206;-93
2023/04/27 03:00:56;;;;;;;5.05;2.60;;;;;;;7.11;97.35;98747.84;5067136;28;20060;-93
2023/04/27 03:03:22;;;;;;;5.50;3.10;;;;;;;6.93;96.97;98715.47;5068779;28;20440;-92
2023/04/27 03:05:49;;;;;;;4.65;2.80;;;;;;;6.92;97.71;98708.47;5063036;28;20103;-92
2023/04/27 03:08:15;;;;;;;4.65;2.60;;;;;;;6.97;97.08;98705.75;5065657;28;20086;-94
2023/04/27 03:10:41;;;;;;;4.25;2.78;;;;;;;7.03;96.33;98712.75;5060132;28;20513;-92
2023/04/27 03:13:06;;;;;;;4.30;2.85;;;;;;;6.97;97.37;98709.25;5063785;28;21112;-93
2023/04/27 03:15:32;;;;;;;5.32;3.10;;;;;;;7.04;96.85;98722.41;5065623;28;20027;-94
2023/04/27 03:17:58;;;;;;;4.70;2.90;;;;;;;7.11;97.20;98732.88;5067374;28;20033;-93
2023/04/27 03:20:24;;;;;;;4.88;2.80;;;;;;;6.99;96.98;98718.03;5062829;28;20540;-91
2023/04/27 03:22:51;;;;;;;4.90;2.85;;;;;;;7.01;97.03;98725.97;5063641;28;20044;-94
2023/04/27 03:25:17;;;;;;;4.05;2.67;;;;;;;6.94;96.82;98716.34;5064748;28;20072;-93
2023/04/27 03:27:43;;;;;;;4.00;2.88;;;;;;;6.92;96.99;98721.69;5062911;28;20056;-92
2023/04/27 03:30:10;;;;;;;4.13;2.75;;;;;;;6.97;98.54;98735.69;5064249;28;20513;-92
2023/04/27 03:32:36;;;;;;;4.05;2.90;;;;;;;6.84;99.31;98722.66;5065286;28;20493;-93
2023/04/27 03:35:03;;;;;;;4.10;2.63;;;;;;;6.67;99.16;98707.88;5063614;28;20040;-92
2023/04/27 03:37:29;;;;;;;6.30;3.08;;;;;;;6.79;99.72;98742.09;5063860;28;20043;-93
2023/04/27 03:39:56;;;;;;;4.40;2.63;;;;;;;6.61;100.00;98715.03;5058055;28;20064;-93
2023/04/27 03:42:22;;;;;;;4.25;2.65;;;;;;;6.71;100.00;98736.03;5059896;28;20056;-91
2023/04/27 03:44:47;;;;;;;5.60;2.80;;;;;;;6.72;100.00;98740.44;5062442;28;20398;-92
2023/04/27 03:47:13;;;;;;;4.78;2.90;;;;;;;6.50;100.00;98718.66;5060229;28;20052;-92
2023/04/27 03:49:39;;;;;;;5.47;3.00;;;;;;;6.66;100.00;98753.72;5064677;28;20036;-93
2023/04/27 03:52:05;;;;;;;5.07;3.00;;;;;;;6.45;100.00;98719.63;5067212;28;20049;-93
2023/04/27 03:54:31;;;;;;;5.80;3.00;;;;;;;6.44;100.00;98733.69;5060210;28;20037;-93
2023/04/27 03:56:58;;;;;;;5.45;3.10;;;;;;;6.50;100.00;98754.78;5064939;28;20040;-92
2023/04/27 03:59:27;;;;;;;6.45;3.05;;;;;;;6.29;100.00;98734.72;5059609;28;20140;-95
2023/04/27 04:01:53;;;;;;;4.53;2.92;;;;;;;6.36;100.00;98766.38;5062425;28;20064;-94
2023/04/27 04:04:20;;;;;;;4.25;2.70;;;;;;;6.31;100.00;98773.47;5068518;28;20134;-93
2023/04/27 04:06:46;;;;;;;4.13;2.60;;;;;;;6.32;100.00;98783.13;5065691;28;20055;-94
2023/04/27 04:09:11;;;;;;;6.43;2.83;;;;;;;6.04;100.00;98739.41;5059591;28;20128;-94
2023/04/27 04:11:37;;;;;;;7.57;2.97;;;;;;;6.10;100.00;98756.06;5065979;28;20045;-93
2023/04/27 04:14:05;;;;;;;6.22;3.30;;;;;;;5.97;100.00;98749.13;5057005;28;20068;-94
2023/04/27 04:16:32;;;;;;;4.70;2.97;;;;;;;5.99;100.00;98763.19;5055197;28;20045;-94
2023/04/27 04:18:58;;;;;;;5.38;3.22;;;;;;;6.08;100.00;98781.59;5055293;28;20033;-93
2023/04/27 04:21:24;;;;;;;4.32;3.00;;;;;;;6.16;100.00;98800.03;5055702;28;20049;-90
2023/04/27 04:23:50;;;;;;;4.53;2.85;;;;;;;6.14;100.00;98796.50;5055808;28;20394;-93
2023/04/27 04:26:16;;;;;;;6.45;2.92;;;;;;;6.11;100.00;98793.88;5056519;28;20048;-93
2023/04/27 04:28:43;;;;;;;4.38;2.90;;;;;;;5.91;100.00;98760.59;5056142;28;20060;-93
2023/04/27 04:31:10;;;;;;;6.13;2.72;;;;;;;6.05;100.00;98772.81;5048320;28;20102;-92
2023/04/27 04:33:36;;;;;;;5.32;2.70;;;;;;;6.22;100.00;98807.84;5055460;28;20029;-92
2023/04/27 04:36:03;;;;;;;4.63;2.92;;;;;;;5.96;100.00;98766.75;5055817;28;20041;-94
2023/04/27 04:38:29;;;;;;;4.72;3.10;;;;;;;6.12;100.00;98790.38;5054334;28;20041;-93
2023/04/27 04:40:54;;;;;;;5.68;3.40;;;;;;;6.12;100.00;98788.59;5054725;28;20475;-94
2023/04/27 04:43:21;;;;;;;4.90;3.33;;;;;;;6.19;100.00;98796.47;5055927;28;20490;-92
2023/04/27 04:45:46;;;;;;;4.68;2.97;;;;;;;6.09;100.00;98785.97;5055286;28;20061;-94
2023/04/27 04:48:15;;;;;;;4.53;2.90;;;;;;;6.30;100.00;98816.59;5046182;28;20067;-93
2023/04/27 04:50:41;;;;;;;8.17;3.70;;;;;;;6.21;100.00;98799.97;5055965;28;20149;-92
2023/04/27 04:53:07;;;;;;;5.78;3.33;;;;;;;6.37;100.00;98822.69;5054587;28;20148;-93
2023/04/27 04:55:33;;;;;;;5.63;3.90;;;;;;;6.26;100.00;98809.59;5053249;28;20506;-95
2023/04/27 04:57:59;;;;;;;5.63;3.58;;;;;;;6.41;100.00;98826.19;5056139;28;20131;-94
2023/04/27 05:00:25;;;;;;;5.80;3.65;;;;;;;6.38;100.00;98812.13;5055192;28;20040;-92
2023/04/27 05:02:51;;;;;;;4.95;3.50;;;;;;;6.47;100.00;98819.09;5055977;28;20090;-93
2023/04/27 05:05:18;;;;;;;5.60;3.50;;;;;;;6.64;100.00;98841.84;5055781;28;20036;-94
2023/04/27 05:07:44;;;;;;;4.97;3.53;;;;;;;6.52;100.00;98813.75;5055551;28;20069;-93
2023/04/27 05:10:10;;;;;;;5.20;3.47;;;;;;;6.70;100.00;98834.72;5051087;28;20052;-93
2023/04/27 05:12:36;;;;;;;5.32;3.58;;;;;;;6.79;100.00;98841.66;5051501;28;20036;-94
2023/04/27 05:15:02;;;;;;;5.75;3.75;;;;;;;6.88;100.00;98840.69;5050801;28;20502;-92
2023/04/27 05:17:28;;;;;;;7.38;3.92;;;;;;;6.92;100.00;98843.28;5050159;28;20041;-93
2023/04/27 05:19:54;;;;;;;6.60;3.40;;;;;;;6.83;100.00;98811.66;5057830;28;20048;-93
2023/04/27 05:22:22;;;;;;;6.63;3.83;;;;;;;6.96;100.00;98812.38;5058933;28;20071;-92
2023/04/27 05:24:49;;;;;;;6.63;3.72;;;;;;;7.36;100.00;98849.78;5057040;28;20055;-93
2023/04/27 05:27:15;;;;;;;6.18;3.80;;;;;;;7.71;100.00;98850.22;5057189;28;20132;-92
2023/04/27 05:29:41;;;;;;;5.75;3.63;;;;;;;7.95;98.68;98817.19;5058074;28;20096;-92
2023/04/27 05:32:08;;;;;;;5.95;3.60;;;;;;;8.54;95.30;98847.16;5053009;28;20045;-93
2023/04/27 05:34:35;;;;;;;6.18;3.70;;;;;;;8.93;93.50;98841.13;5055178;28;20041;-92
2023/04/27 05:37:01;;;;;;;5.75;3.53;;;;;;;9.03;90.01;98817.06;5051078;28;20486;-93
2023/04/27 05:39:28;;;;;;;5.88;3.63;;;;;;;9.50;87.26;98862.13;5054214;28;20056;-94
2023/04/27 05:41:54;;;;;;;6.20;3.75;;;;;;;9.70;86.37;98844.88;5055823;28;20487;-93
2023/04/27 05:44:20;;;;;;;5.57;3.63;;;;;;;9.97;84.75;98851.31;5056706;28;20047;-93
2023/04/27 05:46:48;;;;;;;6.38;3.75;;;;;;;10.07;83.34;98834.25;5055548;28;20457;-93
2023/04/27 05:49:13;;;;;;;5.93;3.78;;;;;;;10.13;81.72;98835.88;5055137;28;20053;-94
2023/04/27 05:51:40;;;;;;;9.48;4.10;;;;;;;10.27;80.75;98836.44;5056915;28;20094;-93
2023/04/27 05:54:07;;;;;;;12.75;4.50;;;;;;;10.30;79.36;98836.41;5054855;28;20059;-93
2023/04/27 05:56:36;;;;;;;15.02;5.47;;;;;;;10.46;79.71;98839.53;5053998;28;20140;-94
2023/04/27 05:59:02;;;;;;;;;;;;;;;10.75;78.18;98876.00;5051329;28;20038;-93
2023/04/27 06:01:28;;;;;;;19.08;6.03;;;;;;;10.68;78.08;98831.88;5052468;28;19921;-93
2023/04/27 06:03:54;;;;;;;10.85;5.50;;;;;;;10.89;78.03;98841.94;5053149;28;20041;-93
2023/04/27 06:06:20;;;;;;;11.65;4.75;;;;;;;11.25;75.42;98862.25;5054684;28;20041;-95
2023/04/27 06:08:46;;;;;;;12.60;4.97;;;;;;;11.36;74.77;98869.91;5054910;28;20044;-94
2023/04/27 06:11:12;;;;;;;10.70;5.00;;;;;;;11.33;74.26;98862.91;5054610;28;20071;-93
2023/04/27 06:13:39;;;;;;;11.20;6.00;;;;;;;11.38;74.59;98868.09;5060949;28;20048;-92
2023/04/27 06:16:05;;;;;;;8.30;5.20;;;;;;;11.42;74.96;98840.47;5061430;28;20041;-95
2023/04/27 06:18:31;;;;;;;11.40;5.70;;;;;;;11.82;73.45;98860.56;5056559;28;20140;-93
2023/04/27 06:21:01;;;;;;;17.85;6.63;;;;;;;11.81;72.99;98842.84;5056107;28;20053;-94
2023/04/27 06:23:27;;;;;;;12.65;6.85;;;;;;;12.03;72.22;98870.59;5065406;28;20044;-93
2023/04/27 06:25:53;;;;;;;14.88;7.72;;;;;;;12.19;73.12;98872.75;5068636;28;20040;-94
2023/04/27 06:28:19;;;;;;;13.55;7.53;;;;;;;12.16;72.05;98841.75;5071090;28;20120;-94
2023/04/27 06:30:46;;;;;;;13.85;7.75;;;;;;;12.42;70.28;98872.91;5062118;28;20041;-94
2023/04/27 06:33:12;;;;;;;13.70;7.30;;;;;;;12.30;70.86;98849.31;5073181;28;20123;-94
2023/04/27 06:35:38;;;;;;;12.85;7.35;;;;;;;12.47;69.90;98860.31;5070970;28;20061;-94
2023/04/27 06:38:05;;;;;;;12.80;6.75;;;;;;;12.48;68.76;98850.50;5067808;28;20044;-93
2023/04/27 06:40:31;;;;;;;12.60;6.80;;;;;;;12.56;69.02;98848.44;5065437;28;20044;-94
2023/04/27 06:42:57;;;;;;;13.50;7.75;;;;;;;12.94;67.83;98889.81;5069989;28;20057;-94
2023/04/27 06:45:23;;;;;;;12.48;7.53;;;;;;;13.12;67.83;98866.09;5057147;28;20045;-92
2023/04/27 06:47:50;;;;;;;11.73;7.10;;;;;;;13.38;65.93;98861.59;5070879;28;20040;-92
2023/04/27 06:50:16;;;;;;;12.30;6.88;;;;;;;13.56;65.76;98875.16;5063589;28;20454;-95
2023/04/27 06:52:42;;;;;;;10.85;6.60;;;;;;;13.79;64.71;98891.25;5057210;28;20036;-92
2023/04/27 06:55:09;;;;;;;13.15;6.88;;;;;;;13.59;63.93;98841.25;5066431;28;20033;-95
2023/04/27 06:57:35;;;;;;;14.40;6.85;;;;;;;13.75;65.06;98845.94;5064130;28;20051;-94
2023/04/27 07:00:02;;;;;;;13.73;5.90;;;;;;;14.03;62.92;98857.34;5059828;28;20106;-94
2023/04/27 07:02:28;;;;;;;14.35;6.10;;;;;;;14.24;63.80;98882.34;5062878;28;20033;-93
2023/04/27 07:04:55;;;;;;;9.80;5.80;;;;;;;14.38;63.13;98877.34;5063926;28;20064;-93
2023/04/27 07:07:21;;;;;;;8.70;5.65;;;;;;;14.62;61.62;98877.28;5065740;28;20075;-94
2023/04/27 07:09:47;;;;;;;9.13;4.75;;;;;;;14.63;61.68;98869.19;5062628;28;20049;-92
2023/04/27 07:12:13;;;;;;;7.75;4.20;;;;;;;14.81;61.56;98866.66;5068364;28;20037;-94
2023/04/27 07:14:39;;;;;;;7.05;3.75;;;;;;;14.88;61.08;98868.16;5059087;28;20048;-94
2023/04/27 07:17:05;;;;;;;5.82;3.35;;;;;;;15.10;59.56;98863.59;5056997;28;20114;-93
2023/04/27 07:19:31;;;;;;;10.25;3.42;;;;;;;15.05;60.10;98854.91;5057895;28;20470;-92
2023/04/27 07:21:58;;;;;;;5.50;3.15;;;;;;;15.33;58.22;98859.00;5043943;28;20041;-93
2023/04/27 07:24:24;;;;;;;5.25;3.03;;;;;;;15.00;59.16;98860.44;5057606;28;20041;-94
2023/04/27 07:26:50;;;;;;;4.75;2.65;;;;;;;15.13;60.15;98857.22;5055818;28;20041;-93
2023/04/27 07:29:16;;;;;;;6.40;2.72;;;;;;;15.37;58.28;98856.13;5057141;28;20052;-93
2023/04/27 07:31:42;;;;;;;4.00;2.70;;;;;;;15.48;57.27;98844.91;5056253;28;20485;-93
2023/04/27 07:34:10;;;;;;;6.43;3.42;;;;;;;15.53;57.52;98844.72;5057973;28;20051;-95
2023/04/27 07:36:36;;;;;;;7.43;2.67;;;;;;;15.76;56.20;98849.91;5057003;28;20505;-94
2023/04/27 07:39:05;;;;;;;5.45;2.63;;;;;;;15.98;56.04;98851.56;5057802;28;20075;-94
2023/04/27 07:41:33;;;;;;;4.87;2.70;;;;;;;16.13;55.72;98869.59;5055013;28;20123;-95
2023/04/27 07:43:59;;;;;;;5.20;2.90;;;;;;;15.93;55.50;98840.19;5060404;28;20047;-94
2023/04/27 07:46:25;;;;;;;5.35;2.80;;;;;;;16.06;56.19;98838.66;5058162;28;20469;-95
2023/04/27 07:48:51;;;;;;;4.32;2.63;;;;;;;16.32;55.43;98860.66;5062591;28;20051;-95
2023/04/27 07:51:17;;;;;;;3.80;2.65;;;;;;;16.42;54.43;98845.88;5063014;28;20045;-94
2023/04/27 07:53:45;;;;;;;3.80;2.60;;;;;;;16.36;54.18;98824.69;5061835;28;20033;-94
2023/04/27 07:56:12;;;;;;;4.68;2.80;;;;;;;16.66;53.80;98846.44;5061398;28;20044;-94
2023/04/27 07:58:38;;;;;;;6.72;2.72;;;;;;;16.90;53.29;98852.41;5060999;28;20057;-95
2023/04/27 08:01:04;;;;;;;5.18;3.03;;;;;;;16.94;51.30;98832.50;5060020;28;20133;-93
2023/04/27 08:03:30;;;;;;;3.92;2.50;;;;;;;17.30;50.98;98858.38;5062091;28;20041;-93
2023/04/27 08:05:56;;;;;;;7.35;2.55;;;;;;;17.35;51.00;98845.56;5062489;28;20051;-94
2023/04/27 08:08:22;;;;;;;4.85;2.78;;;;;;;17.49;49.60;98854.72;5058691;28;20041;-93
2023/04/27 08:10:48;;;;;;;4.38;2.45;;;;;;;17.45;48.54;98832.47;5058016;28;20045;-95
2023/04/27 08:13:15;;;;;;;4.38;2.33;;;;;;;17.73;46.13;98852.50;5059900;28;20052;-95
2023/04/27 08:15:41;;;;;;;4.55;2.33;;;;;;;17.64;46.21;98827.84;5058927;28;20036;-94
2023/04/27 08:18:07;;;;;;;4.15;2.30;;;;;;;17.69;45.56;98824.03;5064600;28;20128;-93
2023/04/27 08:20:33;;;;;;;3.60;2.28;;;;;;;17.93;45.41;98832.59;5062689;28;20052;-93
2023/04/27 08:22:59;;;;;;;4.20;2.38;;;;;;;17.81;45.25;98828.75;5073813;28;20437;-94
2023/04/27 08:25:25;;;;;;;3.80;2.50;;;;;;;18.05;45.09;98853.44;5067618;28;20127;-93
2023/04/27 08:27:51;;;;;;;4.00;2.63;;;;;;;17.95;44.02;98847.69;5072957;28;20027;-95
2023/04/27 08:30:20;;;;;;;5.70;2.55;;;;;;;18.03;43.50;98841.88;5064695;28;20048;-93
2023/04/27 08:32:46;;;;;;;6.28;3.03;;;;;;;17.94;44.54;98823.56;5071909;28;20147;-95
2023/04/27 08:35:13;;;;;;;5.43;3.28;;;;;;;18.14;45.05;98844.81;5065248;28;20055;-95
2023/04/27 08:37:39;;;;;;;6.25;2.70;;;;;;;18.22;44.42;98834.50;5072811;28;20218;-95
2023/04/27 08:40:06;;;;;;;5.00;2.85;;;;;;;18.56;43.96;98854.06;5068895;28;20033;-94
2023/04/27 08:42:32;;;;;;;3.70;2.60;;;;;;;18.58;42.62;98848.59;5080770;28;20040;-94
2023/04/27 08:44:58;;;;;;;4.85;2.20;;;;;;;18.40;42.13;98827.19;5081168;28;20394;-94
2023/04/27 08:47:26;;;;;;;5.60;2.47;;;;;;;18.29;42.63;98843.09;5068056;28;20068;-94
2023/04/27 08:49:52;;;;;;;3.80;2.50;;;;;;;18.40;42.47;98831.69;5060192;28;20075;-94
2023/04/27 08:52:18;;;;;;;3.25;2.08;;;;;;;18.52;40.25;98825.63;5077118;28;20040;-95
2023/04/27 08:54:44;;;;;;;4.00;2.30;;;;;;;18.74;42.24;98830.59;5079913;28;20045;-95
2023/04/27 08:57:10;;;;;;;3.85;2.13;;;;;;;18.64;41.08;98826.69;5074871;28;20044;-94
2023/04/27 08:59:36;;;;;;;4.85;2.33;;;;;;;18.75;41.74;98831.44;5063628;28;20048;-94
2023/04/27 09:02:03;;;;;;;4.93;2.33;;;;;;;18.62;41.55;98856.41;5062381;28;20135;-95
2023/04/27 09:04:37;;;;;;;4.43;2.50;;;;;;;18.18;42.04;98832.94;5062349;28;20045;-95
2023/04/27 09:07:11;;;;;;;4.38;2.38;;;;;;;18.69;40.25;98843.44;5069706;28;20063;-95
2023/04/27 09:09:37;;;;;;;4.38;2.28;;;;;;;18.54;39.28;98818.31;5060811;28;20135;-95
2023/04/27 09:12:12;;;;;;;3.08;2.08;;;;;;;18.70;38.38;98823.66;5061736;28;20029;-94
2023/04/27 09:14:38;;;;;;;4.15;2.08;;;;;;;18.95;38.51;98850.00;5063948;28;20028;-95
2023/04/27 09:17:04;;;;;;;3.00;2.00;;;;;;;19.04;38.64;98827.03;5059408;28;20094;-94
2023/04/27 09:19:30;;;;;;;3.42;2.30;;;;;;;19.30;39.20;98852.41;5059296;28;20139;-94
2023/04/27 09:22:06;;;;;;;4.28;2.17;;;;;;;19.46;38.36;98855.03;5063852;28;20040;-95
2023/04/27 09:24:32;;;;;;;4.20;2.17;;;;;;;19.29;38.93;98821.88;5058044;28;20045;-94
2023/04/27 09:26:58;;;;;;;2.85;1.70;;;;;;;19.26;35.72;98837.38;5070074;28;20042;-95
2023/04/27 09:29:31;;;;;;;4.60;1.92;;;;;;;19.02;37.40;98805.56;5060451;28;20143;-94
2023/04/27 09:31:57;;;;;;;3.28;2.00;;;;;;;19.31;37.25;98824.47;5059131;28;20045;-93
2023/04/27 09:34:23;;;;;;;4.22;2.03;;;;;;;19.51;37.57;98809.75;5060053;28;20051;-94
2023/04/27 09:36:49;;;;;;;3.22;2.40;;;;;;;19.61;36.99;98823.53;5060360;28;20055;-95
2023/04/27 09:39:19;;;;;;;3.25;2.30;;;;;;;19.28;36.73;98812.06;5060955;28;20490;-95
2023/04/27 09:41:45;;;;;;;5.03;2.10;;;;;;;19.60;36.92;98829.88;5060252;28;20042;-96
2023/04/27 09:44:13;;;;;;;3.55;2.30;;;;;;;19.60;37.25;98803.75;5061718;28;20056;-95
2023/04/27 09:46:42;;;;;;;7.40;2.30;;;;;;;20.04;37.56;98829.75;5061426;28;20524;-95
2023/04/27 09:49:10;;;;;;;4.80;2.40;;;;;;;19.74;36.82;98815.56;5059748;28;20580;-95
2023/04/27 09:51:36;;;;;;;4.28;2.20;;;;;;;19.72;35.18;98799.47;5062020;28;20044;-95
2023/04/27 09:54:03;;;;;;;4.55;2.38;;;;;;;20.13;32.96;98835.53;5060897;28;20143;-95
2023/04/27 09:56:41;;;;;;;2.50;1.80;;;;;;;20.22;33.36;98818.72;5060495;28;20041;-94
2023/04/27 09:59:24;;;;;;;2.42;1.70;;;;;;;19.97;31.97;98797.84;5082244;28;20040;-95
2023/04/27 10:01:54;;;;;;;2.72;1.70;;;;;;;20.17;30.49;98791.16;5082392;28;20047;-94
2023/04/27 10:04:34;;;;;;;3.10;1.80;;;;;;;19.90;31.91;98797.41;5083033;28;20044;-95
2023/04/27 10:07:01;;;;;;;3.10;2.00;;;;;;;20.23;28.75;98799.72;5083585;28;20428;-95
2023/04/27 10:09:33;;;;;;;4.07;1.98;;;;;;;20.39;29.32;98785.22;5082218;28;20486;-95
2023/04/27 10:12:14;;;;;;;3.17;1.95;;;;;;;20.71;30.32;98788.47;5068773;28;20036;-94
2023/04/27 10:14:49;;;;;;;2.70;1.50;;;;;;;20.89;29.77;98805.25;5076219;28;20532;-94
2023/04/27 10:17:16;;;;;;;2.50;1.75;;;;;;;21.10;28.22;98805.56;5042610;28;20045;-94
2023/04/27 10:19:53;;;;;;;1.73;1.52;;;;;;;20.97;27.40;98786.66;5045018;28;20060;-95
2023/04/27 10:22:19;;;;;;;3.88;2.00;;;;;;;20.62;28.07;98789.06;5046523;28;20029;-95
2023/04/27 10:24:48;;;;;;;2.38;1.70;;;;;;;20.67;28.48;98777.00;5043427;28;20071;-95
2023/04/27 10:27:20;;;;;;;2.45;1.70;;;;;;;20.81;29.02;98785.97;5059742;28;20048;-95
2023/04/27 10:29:47;;;;;;;4.50;1.80;;;;;;;21.11;28.52;98796.50;5067369;28;20044;-95
2023/04/27 10:32:20;;;;;;;2.78;1.85;;;;;;;21.15;29.64;98799.88;5063163;28;20517;-95
2023/04/27 10:34:47;;;;;;;3.10;1.88;;;;;;;20.85;29.63;98796.47;5065436;28;20500;-95
2023/04/27 10:37:14;;;;;;;2.58;1.88;;;;;;;20.86;29.09;98767.59;5065102;28;20093;-95
2023/04/27 10:39:42;;;;;;;2.55;1.75;;;;;;;21.00;28.41;98769.38;5064768;28;20037;-94
2023/04/27 10:42:09;;;;;;;4.17;1.87;;;;;;;20.94;29.60;98781.47;5070507;28;20123;-95
2023/04/27 10:44:37;;;;;;;3.53;2.00;;;;;;;21.04;29.59;98763.63;5084020;28;20549;-94
2023/04/27 10:47:13;;;;;;;4.13;2.00;;;;;;;21.03;29.02;98770.00;5082789;28;20036;-95
2023/04/27 10:49:39;;;;;;;2.88;2.30;;;;;;;21.02;28.00;98756.59;5081976;28;20079;-95
2023/04/27 10:52:05;;;;;;;3.63;1.98;;;;;;;21.11;27.42;98747.84;5082340;28;20044;-94
2023/04/27 10:54:31;;;;;;;3.45;1.83;;;;;;;21.35;28.10;98761.44;5082530;28;20114;-95
2023/04/27 10:57:02;;;;;;;3.63;1.90;;;;;;;21.28;27.50;98752.91;5082654;28;20131;-96
2023/04/27 10:59:28;;;;;;;4.45;1.80;;;;;;;21.27;26.33;98751.16;5084371;28;20040;-95
2023/04/27 11:01:56;;;;;;;2.42;1.70;;;;;;;21.41;26.82;98779.97;5083783;28;20048;-95
2023/04/27 11:04:22;;;;;;;5.05;1.80;;;;;;;20.99;27.25;98748.69;5085090;28;20501;-95
2023/04/27 11:06:49;;;;;;;3.65;1.95;;;;;;;20.78;27.93;98746.53;5080199;28;20068;-95
2023/04/27 11:09:25;;;;;;;2.65;1.80;;;;;;;20.90;26.96;98772.69;5073541;28;20523;-95
2023/04/27 11:11:51;;;;;;;4.45;1.90;;;;;;;21.14;27.13;98753.00;5064909;28;20045;-94
2023/04/27 11:14:20;;;;;;;2.13;1.60;;;;;;;21.56;26.51;98777.13;5067899;28;20040;-95
2023/04/27 11:16:46;;;;;;;;;;;;;;;21.87;26.52;98776.66;5075226;28;20555;-94
2023/04/27 11:19:13;;;;;;;2.85;2.30;;;;;;;22.04;26.52;98769.13;5071017;28;20404;-94
2023/04/27 11:21:39;;;;;;;5.78;2.42;;;;;;;21.84;25.63;98752.53;5072427;28;20045;-95
2023/04/27 11:24:07;;;;;;;3.10;1.90;;;;;;;22.04;25.21;98751.03;5064694;28;20452;-95
2023/04/27 11:26:33;;;;;;;4.05;1.88;;;;;;;22.22;25.30;98754.22;5066327;28;20044;-93
2023/04/27 11:29:00;;;;;;;4.25;2.00;;;;;;;22.37;25.99;98756.78;5069405;28;20040;-93
2023/04/27 11:31:27;;;;;;;3.33;1.80;;;;;;;22.30;24.62;98746.41;5067281;28;20045;-94
2023/04/27 11:33:53;;;;;;;4.03;2.10;;;;;;;22.05;25.42;98722.97;5068446;28;20036;-94